Flight Track Log - Related Links

Times and Time Zones

All times are in EDT time to prevent confusion due to time zone crossing. See the N3746H flight status page for this flight to view local times or setup timezone preferences in your user account.

Time Position Orientation Groundspeed Altitude Reporting Facility
EDT Latitude Longitude Course Direction KTS MPH feet Rate Location/Type
Sat 12:04:00 AM 40.7692 -111.9978 270° West 188 216 5,000  Level Salt Lake Center
Sat 12:05:11 AM 40.7519 -112.0728 253° West 223 257 7,000 1,912 Climbing Salt Lake Center
Sat 12:05:31 AM 40.7622 -112.1047 293° West 243 280 7,900 2,459 Climbing Salt Lake Center
Sat 12:06:12 AM 40.7808 -112.1581 295° West 253 291 9,500 2,647 Climbing Salt Lake Center
Sat 12:07:00 AM 40.8559 -112.5091 259° West  Level FlightAware Approximate
Sat 12:07:13 AM 40.8133 -112.2528 294° West 278 320 12,400  Level Salt Lake Center
Sat 12:08:00 AM 40.8500 -112.6608 270° West  Level FlightAware Approximate
Sat 12:08:14 AM 40.8478 -112.3586 293° West 314 361 13,800  Level Salt Lake Center
Sat 12:09:00 AM 40.8333 -112.8084 270° West  Level FlightAware Approximate
Sat 12:09:15 AM 40.8689 -112.4961 282° West 384 442 15,900  Level Salt Lake Center
Sat 12:10:17 AM 40.8575 -112.6467 264° West 413 475 17,900 2,146 Climbing Salt Lake Center
Sat 12:11:18 AM 40.8450 -112.8039 264° West 432 497 20,300 2,262 Climbing Salt Lake Center
Sat 12:12:19 AM 40.8417 -112.9656 268° West 442 509 22,500 1,967 Climbing Salt Lake Center
Sat 12:13:20 AM 40.8336 -113.1308 266° West 452 520 24,300 1,770 Climbing Salt Lake Center
Sat 12:14:21 AM 40.7994 -113.2953 255° West 465 535 26,100 1,623 Climbing Salt Lake Center
Sat 12:15:22 AM 40.7642 -113.4631 255° West 474 545 27,600 1,902 Climbing Salt Lake Center
Sat 12:16:24 AM 40.7244 -113.6653 256° West 476 548 30,000 1,951 Climbing Salt Lake Center
Sat 12:17:25 AM 40.6911 -113.8322 255° West 473 544 31,600 1,525 Climbing Salt Lake Center
Sat 12:18:26 AM 40.6575 -113.9972 255° West 468 539 33,100 1,475 Climbing Salt Lake Center
Sat 12:19:27 AM 40.6242 -114.1619 255° West 468 539 34,600 1,426 Climbing Salt Lake Center
Sat 12:20:28 AM 40.5908 -114.3233 255° West 460 529 36,000 683 Climbing Salt Lake Center
Sat 12:21:30 AM 40.5567 -114.4833 254° West 456 525 36,000  Level Salt Lake Center
Sat 12:22:31 AM 40.5242 -114.6414 255° West 451 519 36,000  Level Salt Lake Center
Sat 12:23:32 AM 40.4906 -114.8017 255° West 454 522 36,000 639 Level Salt Lake Center
Sat 12:24:33 AM 40.4514 -114.9789 254° West 452 520 37,300 976 Climbing Salt Lake Center
Sat 12:25:35 AM 40.4208 -115.1300 255° West 449 517 38,000 341 Climbing Salt Lake Center
Sat 12:26:36 AM 40.3875 -115.2808 254° West 450 518 38,000  Level Salt Lake Center
Sat 12:27:37 AM 40.3486 -115.4578 254° West 451 519 38,000  Level Salt Lake Center
Sat 12:28:38 AM 40.3158 -115.6083 254° West 450 518 38,000  Level Salt Lake Center
Sat 12:29:39 AM 40.2781 -115.7819 254° West 445 512 38,000  Level Salt Lake Center
Sat 12:30:40 AM 40.2428 -115.9325 253° West 448 516 38,000  Level Salt Lake Center
Sat 12:31:42 AM 40.2092 -116.0808 254° West 442 509 38,000  Level Salt Lake Center
Sat 12:32:43 AM 40.1700 -116.2558 254° West 447 514 38,000  Level Salt Lake Center
Sat 12:33:44 AM 40.1372 -116.4050 254° West 445 512 38,000  Level Salt Lake Center
Sat 12:34:45 AM 40.1019 -116.5544 253° West 445 512 38,000  Level Salt Lake Center
Sat 12:35:46 AM 40.0614 -116.7297 253° West 449 517 38,000  Level Salt Lake Center
Sat 12:36:54 AM 40.0219 -116.9039 254° West 447 514 38,000  Level Oakland Center
Sat 12:37:55 AM 39.9864 -117.0567 253° West 454 522 38,000  Level Oakland Center
Sat 12:38:56 AM 39.9514 -117.2061 253° West 453 521 38,000  Level Oakland Center
Sat 12:39:51 AM 39.9153 -117.3581 253° West 453 521 38,000  Level Salt Lake Center
Sat 12:40:52 AM 39.8794 -117.5075 253° West 451 519 38,000  Level Salt Lake Center
Sat 12:41:53 AM 39.8369 -117.6828 253° West 453 521 38,000  Level Salt Lake Center
Sat 12:42:54 AM 39.7981 -117.8433 253° West 451 519 38,000  Level Salt Lake Center
Sat 12:44:00 AM 39.7614 -117.9975 253° West 449 517 38,000  Level Oakland Center
Sat 12:45:01 AM 39.7233 -118.1533 252° West 455 524 38,000  Level Oakland Center
Sat 12:46:02 AM 39.6858 -118.3056 252° West 446 513 38,000  Level Oakland Center
Sat 12:47:03 AM 39.6486 -118.4586 253° West 447 514 38,000  Level Oakland Center
Sat 12:48:04 AM 39.6103 -118.6119 252° West 453 521 38,000  Level Oakland Center
Sat 12:49:05 AM 39.5658 -118.7922 252° West 451 519 38,000  Level Oakland Center
Sat 12:50:06 AM 39.5275 -118.9439 252° West 453 521 38,000  Level Oakland Center
Sat 12:51:07 AM 39.4883 -119.0958 252° West 452 520 38,000 -50 Level Oakland Center
Sat 12:52:07 AM 39.4489 -119.2475 251° West 450 518 37,900 -545 Descending Oakland Center
Sat 12:53:08 AM 39.4092 -119.3983 251° West 446 513 36,900 -934 Descending Oakland Center
Sat 12:54:09 AM 39.3725 -119.5475 252° West 439 505 36,000 -934 Descending Oakland Center
Sat 12:55:10 AM 39.3350 -119.6953 252° West 436 502 35,000 -1,426 Descending Oakland Center
Sat 12:56:11 AM 39.2958 -119.8469 252° West 446 513 33,100 -1,869 Descending Oakland Center
Sat 12:57:12 AM 39.2556 -119.9986 251° West 450 518 31,200 -2,361 Descending Oakland Center
Sat 12:58:13 AM 39.2097 -120.1575 250° West 452 520 28,300 -2,975 Descending Oakland Center
Sat 12:59:13 AM 39.1678 -120.3133 251° West 461 531 25,200 -2,826 Descending Oakland Center
Sat 01:00:14 AM 39.1300 -120.4697 253° West 459 528 22,600 -2,508 Descending Oakland Center
Sat 01:01:15 AM 39.0919 -120.6197 252° West 446 513 20,100 -2,557 Descending Oakland Center
Sat 01:02:16 AM 39.0514 -120.7667 250° West 439 505 17,400 -3,295 Descending Oakland Center
Sat 01:03:17 AM 39.0008 -120.9333 249° West 422 486 13,400 -3,541 Descending Oakland Center
Sat 01:04:18 AM 38.9614 -121.0667 249° West 405 466 10,200 -2,170 Descending Oakland Center
Sat 01:04:51 AM 38.9333 -121.1333 242° Southwest 353 406 10,000 -968 Descending Northern Cal TRACON
Sat 01:05:51 AM 38.9167 -121.2333 258° West 289 333 8,700 -1,800 Descending Northern Cal TRACON
Sat 01:06:51 AM 38.8833 -121.3167 243° Southwest 263 303 6,400 -2,200 Descending Northern Cal TRACON
Sat 01:07:51 AM 38.8500 -121.4000 243° Southwest 251 289 4,300 -1,650 Descending Northern Cal TRACON
Sat 01:08:51 AM 38.8333 -121.4833 256° West 205 236 3,100 -1,150 Descending Northern Cal TRACON
Sat 01:09:51 AM 38.8167 -121.5500 252° West 191 220 2,000 -800 Descending Northern Cal TRACON
Sat 01:10:51 AM 38.7833 -121.5833 218° Southwest 158 182 1,500 -500 Descending Northern Cal TRACON

Login

Don't have an account? Register now (free) for customized features, flight alerts, and more!